Hauptseite
METAR-TAF:

METAR-TAF

Flughäfen :

Shanghai-Pudong, China

Shanghai Pudong International Airport

Breite: 31-07N, Länge: 121-46E, Höhe: 4 m

Beobachtung

Neuester Wetterbericht von vor 33 Minuten, um 07:00 UTC
Wind 14 kt aus Nordwest
Temperatur 13°C
Luftfeuchtigkeit 58%
Luftdruck 1021 hPa
Sichtweite: 7000 m

METAR: ZSPD 220700Z 32007MPS 7000 NSC 13/05 Q1021 NOSIG

Zeit: 15:33 (07:33 UTC)

Prognose

Neuester Wetterbericht von vor 4 Stunden und 21 Minuten, um 03:12 UTC
Gültige Prognose vom 22 um 06 UTC bis 23 um 06 UTC
Wind 16 kt aus Nord/Nordwest
Sichtweite: 5000 m
Durchbrochene Bewölkung in der Höhe von 1500 ft
feuchter Dunst

TAF: ZSPD 220312Z 2206/2306 34008MPS 5000 BR BKN015 TX13/2207Z TN06/2221Z

Wetterbeobachtungen und Prognosen von mehr als 4000 Flughäfen (METAR und TAF Bericht).

Die verfügbaren Stationen werden durch gelbe und rote Markierungen auf der Karte dargestellt.

Führen Sie die Maus auf sie, um den Namen der Station zu sehen.

Darauf klicken, um die Beobachtung von Wetterbeobachtungen und Prognosen zu sehen.

Um die Karte zu ändern : klicken Sie auf den grünen Tasten mit einem schwarzen Kreuz Zum Vergrößern, auf den grünen Button mit einem Gedankenstrich zu verkleinern, oder auf die grünen Pfeile für benachbarte Karten.


METAR-TAF: